Ribeira, Brazil
Current Conditions -  °F | °C
As of 10:00 PM on Tuesday 25 Nov 2014 (Local Time) from SBBI Reporting Station
Thunderstorm Thunderstorm  
Wind Chill: 64°   Ceiling: 10000
Heat Index: 64°   Visibility: 2.5mi
Dew Point: 63°   Wind: 1mph
Humidity: 94%   Direction: 150°SSE
Pressure: 29.94"   Gusts: NA
Location:  24.66°S, 49.01°W
Report Text: SBBI 260000Z 15001KT 4000 -TSRA SCT007 SCT030 FEW040CB BKN100 18/17 Q1014
Loading
Personal Weather Stations






























Interactive Weather Map New forecast layout! Learn more

10-Day Weather Forecast

Advertisements
Track Severe Weather on mobile